メインページ
METAR-TAF:

METAR-TAF

空港 :

ヌアクショット空港

ヌアクショット, モーリタニア

緯度: 18-18-36N, 経度: 015-58-11W, 海抜: 3m

現時点の気象観測

当レポートは36分前の07:00(UTC)に作成
北/北西の風 12kt
気温 25°C
湿度 79%
気圧 1009 hPa
視程: 8000m

METAR: GQNO 190700Z 34012KT 8000 NSC 25/21 Q1009 NOSIG

時間: 07:36 (07:36 UTC)

予報

当レポートは2時間36分前の05:00(UTC)に作成
予報は19日の 06時(UTC)から 20日の 12時(UTC)まで有効
北西の風 13kt
視程: 8000m
確率 40% :
19日の 08時(UTC)から 19日の 11時(UTC)まで一時的に
北西の風 3kt
20日の 08時(UTC)から 20日の 10時(UTC)まで徐々に
南西の風 6kt

TAF: GQNO 190500Z 1906/2012 32013KT 8000 NSC PROB40 TEMPO 1908/1911 32003KT BECMG 2008/2010 22006KT

4,000以上の空港の気象観測と天気予報(METAR報とTAF報)

利用可能な観測所は地図上に黄色い丸と赤い丸で示す。

丸の上にカーソルを重ねると観測所名を参照できる。

次にクリックすると気象観測と天気予報を参照できる。

マップの切り替え:黒色「×」印の緑ボタンをクリックして拡大、「-」印の緑ボタンをクリックして縮小、緑色の三角印をクリックして隣りの地図に切り替え


METAR-TAF: